createdAt,value
2019-04-16T00:00:22.671Z,14.73
2019-04-16T00:02:56.289Z,15.30
2019-04-16T00:05:29.202Z,15.23
2019-04-16T00:08:01.974Z,14.93
2019-04-16T00:10:37.828Z,13.97
2019-04-16T00:13:08.045Z,14.67
2019-04-16T00:15:40.960Z,13.83
2019-04-16T00:18:06.593Z,15.17
2019-04-16T00:20:37.979Z,15.43
2019-04-16T00:23:08.174Z,14.90
2019-04-16T00:25:36.575Z,15.23
2019-04-16T00:28:05.014Z,15.50
2019-04-16T00:30:35.743Z,14.97
2019-04-16T00:33:03.550Z,14.67
2019-04-16T00:35:31.962Z,14.33
2019-04-16T00:38:00.524Z,14.13
2019-04-16T00:40:29.012Z,14.57
2019-04-16T00:42:57.425Z,15.73
2019-04-16T00:45:25.826Z,14.33
2019-04-16T00:47:54.242Z,14.60
2019-04-16T00:50:22.629Z,15.87
2019-04-16T00:52:51.034Z,14.13
2019-04-16T00:55:19.461Z,15.70
2019-04-16T00:57:48.617Z,14.80
2019-04-16T01:00:18.127Z,15.07
2019-04-16T01:02:47.029Z,14.40
2019-04-16T01:05:15.627Z,14.80
2019-04-16T01:07:44.038Z,15.37
2019-04-16T01:10:12.591Z,14.80
2019-04-16T01:12:40.989Z,14.47
2019-04-16T01:15:09.638Z,14.50
2019-04-16T01:17:38.047Z,14.90
2019-04-16T01:20:11.662Z,15.33
2019-04-16T01:22:37.421Z,15.70
2019-04-16T01:25:06.773Z,16.00
2019-04-16T01:27:36.823Z,15.70
2019-04-16T01:30:08.042Z,16.27
2019-04-16T01:32:44.085Z,14.80
2019-04-16T01:35:19.030Z,16.07
2019-04-16T01:38:04.813Z,16.30
2019-04-16T01:40:34.870Z,15.63
2019-04-16T01:43:03.270Z,15.57
2019-04-16T01:45:31.690Z,15.20
2019-04-16T01:48:00.237Z,15.43
2019-04-16T01:50:28.691Z,15.97
2019-04-16T01:52:57.096Z,16.53
2019-04-16T01:55:26.356Z,17.57
2019-04-16T01:57:54.902Z,16.40
2019-04-16T02:00:23.303Z,15.97
2019-04-16T02:02:51.726Z,15.20
2019-04-16T02:05:20.397Z,15.47
2019-04-16T02:07:50.261Z,15.67
2019-04-16T02:10:18.665Z,15.37
2019-04-16T02:12:47.074Z,15.27
2019-04-16T02:15:15.545Z,15.80
2019-04-16T02:17:43.953Z,14.57
2019-04-16T02:20:12.892Z,14.60
2019-04-16T02:22:42.295Z,15.13
2019-04-16T02:25:13.006Z,15.20
2019-04-16T02:27:41.494Z,15.13
2019-04-16T02:30:10.078Z,15.63
2019-04-16T02:32:38.483Z,15.43
2019-04-16T02:35:07.417Z,15.37
2019-04-16T02:37:37.355Z,14.83
2019-04-16T02:40:06.895Z,16.17
2019-04-16T02:42:35.348Z,15.97
2019-04-16T02:45:04.424Z,15.13
2019-04-16T02:47:40.031Z,14.47
2019-04-16T02:50:05.293Z,14.90
2019-04-16T02:52:41.337Z,14.60
2019-04-16T02:55:29.747Z,15.20
2019-04-16T02:58:05.767Z,14.07
2019-04-16T03:00:41.651Z,14.10
2019-04-16T03:03:14.525Z,15.07
2019-04-16T03:05:44.737Z,14.33
2019-04-16T03:08:13.215Z,15.77
2019-04-16T03:10:41.803Z,14.73
2019-04-16T03:13:11.754Z,14.03
2019-04-16T03:16:02.898Z,14.10
2019-04-16T03:18:38.037Z,13.70
2019-04-16T03:21:06.442Z,14.17
2019-04-16T03:23:37.552Z,14.90
2019-04-16T03:26:04.980Z,13.97
2019-04-16T03:28:33.663Z,15.20
2019-04-16T03:31:06.890Z,14.20
2019-04-16T03:33:32.210Z,13.67
2019-04-16T03:36:00.623Z,12.93
2019-04-16T03:38:29.104Z,13.93
2019-04-16T03:40:57.505Z,13.87
2019-04-16T03:43:25.926Z,12.67
2019-04-16T03:45:54.334Z,13.97
2019-04-16T03:48:23.490Z,14.13
2019-04-16T03:50:52.883Z,14.47
2019-04-16T03:53:21.299Z,13.77
2019-04-16T03:55:49.710Z,14.30
2019-04-16T03:58:18.130Z,14.40
2019-04-16T04:00:46.534Z,14.23
2019-04-16T04:03:14.947Z,13.80
2019-04-16T04:05:44.991Z,14.27
2019-04-16T04:08:17.618Z,13.83
2019-04-16T04:10:43.853Z,15.03
2019-04-16T04:13:17.277Z,14.80
2019-04-16T04:15:42.674Z,15.03
2019-04-16T04:18:12.600Z,14.30
2019-04-16T04:20:41.265Z,16.03
2019-04-16T04:23:09.670Z,16.20
2019-04-16T04:25:38.082Z,15.57
2019-04-16T04:28:06.712Z,14.77
2019-04-16T04:30:35.405Z,15.07
2019-04-16T04:33:07.458Z,15.43
2019-04-16T04:35:33.954Z,14.57
2019-04-16T04:38:04.210Z,13.97
2019-04-16T04:40:43.854Z,15.60
2019-04-16T04:43:02.662Z,15.67
2019-04-16T04:45:31.071Z,15.77
2019-04-16T04:47:59.476Z,15.80
2019-04-16T04:50:27.890Z,17.07
2019-04-16T04:52:56.320Z,16.73
2019-04-16T04:55:26.916Z,15.33
2019-04-16T04:57:54.858Z,14.77
2019-04-16T05:00:23.272Z,15.20
2019-04-16T05:02:51.672Z,14.97
2019-04-16T05:05:27.465Z,14.50
2019-04-16T05:07:59.698Z,15.93
2019-04-16T05:10:26.002Z,14.43
2019-04-16T05:12:54.437Z,14.70
2019-04-16T05:15:22.997Z,15.07
2019-04-16T05:17:51.437Z,14.57
2019-04-16T05:20:19.852Z,14.27
2019-04-16T05:22:50.604Z,13.67
2019-04-16T05:25:18.409Z,14.33
2019-04-16T05:27:46.873Z,13.50
2019-04-16T05:30:20.103Z,14.23
2019-04-16T05:32:45.554Z,12.93
2019-04-16T05:35:14.037Z,13.60
2019-04-16T05:37:42.527Z,14.40
2019-04-16T05:40:11.283Z,15.07
2019-04-16T05:42:39.696Z,13.73
2019-04-16T05:45:08.654Z,15.07
2019-04-16T05:47:37.052Z,14.03
2019-04-16T05:50:06.020Z,14.07
2019-04-16T05:52:35.956Z,15.70
2019-04-16T05:55:23.038Z,14.63
2019-04-16T05:57:57.914Z,14.53
2019-04-16T06:00:30.345Z,15.07
2019-04-16T06:02:58.750Z,16.53
2019-04-16T06:05:28.150Z,16.60
2019-04-16T06:07:58.361Z,15.97
2019-04-16T06:10:26.766Z,15.07
2019-04-16T06:12:59.574Z,17.17
2019-04-16T06:15:35.666Z,15.70
2019-04-16T06:18:18.333Z,16.30
2019-04-16T06:20:52.925Z,15.80
2019-04-16T06:23:39.265Z,14.13
2019-04-16T06:26:16.333Z,13.33
2019-04-16T06:29:02.052Z,13.57
2019-04-16T06:31:32.103Z,14.37
2019-04-16T06:34:11.414Z,13.93
2019-04-16T06:36:47.538Z,12.47
2019-04-16T06:39:35.870Z,13.33
2019-04-16T06:42:12.112Z,12.97
2019-04-16T06:44:51.084Z,12.83
2019-04-16T06:47:41.735Z,12.43
2019-04-16T06:50:09.781Z,11.83
2019-04-16T06:52:56.382Z,11.63
2019-04-16T06:55:26.444Z,11.17
2019-04-16T06:57:56.493Z,11.77
2019-04-16T07:00:26.542Z,11.63
2019-04-16T07:03:03.089Z,12.03
2019-04-16T07:05:33.341Z,11.63
2019-04-16T07:08:21.861Z,11.33
2019-04-16T07:11:00.605Z,11.80
2019-04-16T07:13:29.021Z,11.50
2019-04-16T07:15:57.779Z,11.73
2019-04-16T07:18:26.408Z,11.47
2019-04-16T07:20:54.866Z,11.70
2019-04-16T07:23:24.748Z,12.20
2019-04-16T07:25:53.522Z,10.73
2019-04-16T07:28:25.827Z,11.03
2019-04-16T07:31:20.333Z,10.83
2019-04-16T07:33:53.851Z,11.17
2019-04-16T07:36:27.296Z,11.10
2019-04-16T07:39:05.039Z,11.43
2019-04-16T07:41:52.264Z,11.97
2019-04-16T07:44:36.549Z,11.97
2019-04-16T07:47:06.361Z,11.75
2019-04-16T07:49:39.209Z,11.03
2019-04-16T07:52:20.962Z,11.30
2019-04-16T07:55:07.350Z,11.60
2019-04-16T07:57:35.772Z,12.37
2019-04-16T08:00:09.510Z,11.25
2019-04-16T08:02:37.163Z,11.95
2019-04-16T08:05:09.223Z,11.68
2019-04-16T08:07:38.003Z,11.43
2019-04-16T08:10:06.902Z,12.23
2019-04-16T08:12:36.463Z,11.95
2019-04-16T08:15:13.856Z,11.78
2019-04-16T08:17:35.473Z,12.00
2019-04-16T08:20:04.325Z,11.45
2019-04-16T08:22:32.802Z,11.28
2019-04-16T08:25:04.058Z,12.28
2019-04-16T08:27:32.664Z,11.78
2019-04-16T08:30:03.738Z,12.15
2019-04-16T08:32:31.222Z,12.00
2019-04-16T08:34:59.650Z,12.13
2019-04-16T08:37:28.065Z,11.70
2019-04-16T08:39:56.489Z,11.43
2019-04-16T08:42:29.047Z,11.55
2019-04-16T08:44:55.085Z,12.43
2019-04-16T08:47:23.490Z,12.55
2019-04-16T08:49:54.197Z,12.15
2019-04-16T08:52:22.054Z,11.63
2019-04-16T08:54:54.557Z,12.00
2019-04-16T08:57:20.729Z,12.47
2019-04-16T08:59:49.143Z,12.45
2019-04-16T09:02:17.563Z,12.50
2019-04-16T09:04:45.979Z,12.37
2019-04-16T09:07:32.213Z,12.53
2019-04-16T09:10:15.677Z,12.68
2019-04-16T09:12:32.168Z,12.60
2019-04-16T09:15:00.700Z,12.33
2019-04-16T09:17:30.981Z,12.55
2019-04-16T09:20:01.713Z,11.78
2019-04-16T09:22:31.171Z,11.75
2019-04-16T09:25:17.547Z,12.73
2019-04-16T09:27:47.606Z,12.68
2019-04-16T09:30:18.107Z,12.63
2019-04-16T09:33:00.378Z,11.97
2019-04-16T09:35:28.803Z,12.20
2019-04-16T09:38:01.640Z,12.68
2019-04-16T09:40:31.775Z,12.53
2019-04-16T09:43:15.663Z,12.28
2019-04-16T09:45:33.911Z,12.85
2019-04-16T09:48:03.708Z,12.55
2019-04-16T09:50:32.398Z,12.82
2019-04-16T09:53:01.967Z,12.85
2019-04-16T09:55:30.601Z,12.68
2019-04-16T09:58:05.749Z,13.22
2019-04-16T10:00:35.224Z,12.80
2019-04-16T10:03:05.354Z,12.33
2019-04-16T10:05:33.762Z,12.40
2019-04-16T10:08:02.187Z,11.43
2019-04-16T10:10:30.691Z,12.37
2019-04-16T10:12:59.283Z,12.03
2019-04-16T10:15:27.766Z,11.55
2019-04-16T10:17:58.631Z,11.68
2019-04-16T10:20:26.410Z,11.60
2019-04-16T10:22:54.969Z,11.97
2019-04-16T10:25:23.373Z,12.25
2019-04-16T10:27:53.428Z,12.20
2019-04-16T10:30:23.679Z,11.83
2019-04-16T10:32:52.169Z,12.35
2019-04-16T10:35:20.685Z,12.63
2019-04-16T10:37:49.093Z,11.40
2019-04-16T10:40:28.558Z,12.55
2019-04-16T10:43:15.205Z,12.55
2019-04-16T10:46:03.357Z,11.75
2019-04-16T10:48:36.253Z,11.43
2019-04-16T10:51:08.825Z,11.88
2019-04-16T10:53:38.901Z,12.70
2019-04-16T10:56:25.385Z,10.93
2019-04-16T10:58:58.457Z,11.60
2019-04-16T11:01:35.200Z,11.75
2019-04-16T11:04:20.823Z,11.50
2019-04-16T11:06:51.010Z,11.30
2019-04-16T11:09:19.522Z,11.93
2019-04-16T11:11:47.941Z,11.93
2019-04-16T11:14:16.381Z,11.95
2019-04-16T11:16:46.540Z,11.35
2019-04-16T11:19:15.006Z,11.15
2019-04-16T11:21:43.421Z,11.70
2019-04-16T11:24:11.917Z,11.85
2019-04-16T11:26:40.455Z,11.90
2019-04-16T11:29:08.892Z,11.00
2019-04-16T11:31:37.958Z,11.22
2019-04-16T11:34:07.020Z,10.43
2019-04-16T11:36:35.796Z,11.10
2019-04-16T11:39:06.472Z,11.00
2019-04-16T11:41:34.932Z,11.38
2019-04-16T11:44:14.792Z,11.68
2019-04-16T11:46:33.533Z,11.85
2019-04-16T11:49:01.997Z,11.40
2019-04-16T11:51:30.402Z,11.07
2019-04-16T11:53:58.926Z,11.07
2019-04-16T11:56:27.349Z,10.30
2019-04-16T11:58:57.618Z,10.13
2019-04-16T12:01:30.580Z,10.50
2019-04-16T12:04:00.634Z,12.13
2019-04-16T12:06:36.498Z,11.17
2019-04-16T12:09:18.006Z,10.70
2019-04-16T12:11:54.097Z,11.48
2019-04-16T12:14:32.207Z,10.25
2019-04-16T12:16:58.932Z,11.17
2019-04-16T12:19:45.757Z,10.80
2019-04-16T12:22:15.863Z,10.82
2019-04-16T12:24:48.614Z,10.13
2019-04-16T12:27:30.698Z,9.83
2019-04-16T12:30:17.248Z,11.20
2019-04-16T12:33:07.444Z,11.27
2019-04-16T12:35:36.840Z,10.90
2019-04-16T12:38:13.158Z,11.23
2019-04-16T12:40:47.885Z,11.45
2019-04-16T12:43:18.006Z,10.40
2019-04-16T12:46:04.640Z,10.53
2019-04-16T12:48:46.763Z,9.88
2019-04-16T12:51:19.768Z,10.58
2019-04-16T12:53:55.591Z,10.68
2019-04-16T12:56:40.166Z,11.43
2019-04-16T12:59:09.202Z,11.53
2019-04-16T13:01:42.013Z,11.48
2019-04-16T13:04:17.848Z,11.18
2019-04-16T13:06:59.717Z,11.48
2019-04-16T13:09:32.714Z,10.40
2019-04-16T13:12:10.301Z,10.58
2019-04-16T13:15:00.393Z,10.55
2019-04-16T13:17:27.760Z,11.53
2019-04-16T13:20:13.993Z,10.82
2019-04-16T13:22:46.994Z,10.53
2019-04-16T13:25:17.037Z,10.72
2019-04-16T13:27:47.909Z,11.35
2019-04-16T13:30:16.674Z,10.15
2019-04-16T13:32:45.089Z,10.38
2019-04-16T13:35:13.648Z,10.93
2019-04-16T13:37:42.069Z,11.30
2019-04-16T13:40:13.793Z,11.03
2019-04-16T13:42:42.213Z,10.65
2019-04-16T13:45:21.835Z,10.82
2019-04-16T13:47:55.649Z,10.20
2019-04-16T13:50:29.803Z,10.38
2019-04-16T13:53:02.574Z,10.50
2019-04-16T13:55:32.639Z,11.15
2019-04-16T13:58:08.989Z,11.00
2019-04-16T14:00:57.222Z,10.90
2019-04-16T14:03:25.645Z,11.08
2019-04-16T14:05:54.062Z,11.20
2019-04-16T14:08:22.490Z,10.75
2019-04-16T14:10:51.814Z,11.25
2019-04-16T14:13:20.235Z,10.93
2019-04-16T14:15:48.637Z,10.98
2019-04-16T14:18:17.061Z,11.22
2019-04-16T14:20:45.471Z,12.23
2019-04-16T14:23:13.891Z,11.15
2019-04-16T14:25:42.307Z,11.43
2019-04-16T14:28:10.857Z,11.03
2019-04-16T14:30:42.683Z,10.85
2019-04-16T14:33:12.770Z,11.15
2019-04-16T14:35:41.186Z,11.00
2019-04-16T14:38:09.640Z,10.58
2019-04-16T14:40:39.673Z,10.28
2019-04-16T14:43:08.399Z,10.23
2019-04-16T14:45:56.807Z,10.93
2019-04-16T14:48:10.194Z,10.10
2019-04-16T14:50:38.746Z,11.38
2019-04-16T14:53:07.151Z,10.57
2019-04-16T14:55:42.164Z,10.68
2019-04-16T14:58:17.945Z,13.43
2019-04-16T15:00:59.834Z,10.55
2019-04-16T15:03:32.607Z,10.93
2019-04-16T15:06:11.214Z,10.45
2019-04-16T15:08:56.373Z,10.35
2019-04-16T15:11:26.429Z,9.98
2019-04-16T15:13:59.425Z,10.40
2019-04-16T15:16:45.718Z,8.88
2019-04-16T15:19:31.129Z,9.65
2019-04-16T15:22:01.214Z,10.28
2019-04-16T15:24:34.286Z,10.78
2019-04-16T15:27:19.409Z,10.30
2019-04-16T15:29:52.530Z,9.77
2019-04-16T15:32:42.002Z,10.00
2019-04-16T15:35:15.194Z,10.33
2019-04-16T15:37:48.387Z,10.10
2019-04-16T15:40:30.551Z,10.03
2019-04-16T15:43:03.336Z,10.37
2019-04-16T15:45:33.399Z,10.30
2019-04-16T15:48:14.867Z,10.00
2019-04-16T15:50:50.058Z,9.27
2019-04-16T15:53:38.201Z,8.70
2019-04-16T15:56:23.622Z,9.00
2019-04-16T15:58:53.665Z,9.00
2019-04-16T16:01:41.878Z,8.97
2019-04-16T16:04:11.928Z,8.97
2019-04-16T16:06:44.565Z,8.87
2019-04-16T16:09:23.636Z,9.57
2019-04-16T16:12:02.997Z,9.17
2019-04-16T16:14:34.656Z,8.97
2019-04-16T16:17:01.715Z,8.50
2019-04-16T16:19:30.125Z,9.50
2019-04-16T16:21:58.551Z,9.27
2019-04-16T16:24:27.001Z,10.03
2019-04-16T16:26:55.422Z,10.63
2019-04-16T16:29:23.830Z,9.23
2019-04-16T16:31:52.242Z,9.67
2019-04-16T16:34:20.653Z,9.10
2019-04-16T16:36:49.066Z,8.43
2019-04-16T16:39:17.679Z,9.47
2019-04-16T16:41:46.654Z,8.60
2019-04-16T16:44:15.278Z,8.50
2019-04-16T16:46:57.214Z,9.07
2019-04-16T16:49:21.454Z,8.27
2019-04-16T16:52:06.579Z,7.83
2019-04-16T16:54:34.983Z,8.20
2019-04-16T16:57:08.162Z,7.90
2019-04-16T16:59:39.838Z,8.33
2019-04-16T17:02:19.097Z,7.87
2019-04-16T17:04:49.145Z,7.83
2019-04-16T17:07:18.048Z,7.83
2019-04-16T17:09:46.530Z,7.23
2019-04-16T17:12:14.934Z,7.80
2019-04-16T17:14:43.337Z,7.80
2019-04-16T17:17:14.903Z,8.40
2019-04-16T17:19:42.069Z,8.67
2019-04-16T17:22:10.549Z,8.73
2019-04-16T17:24:38.958Z,9.17
2019-04-16T17:27:07.365Z,8.00
2019-04-16T17:29:35.847Z,8.40
2019-04-16T17:32:04.394Z,8.50
2019-04-16T17:34:32.803Z,9.03
2019-04-16T17:37:01.206Z,8.70
2019-04-16T17:39:42.373Z,8.30
2019-04-16T17:42:08.993Z,9.33
2019-04-16T17:44:41.993Z,8.90
2019-04-16T17:47:32.517Z,9.00
2019-04-16T17:50:03.720Z,8.90
2019-04-16T17:52:33.241Z,7.87
2019-04-16T17:55:12.069Z,7.83
2019-04-16T17:57:57.415Z,8.00
2019-04-16T18:00:42.749Z,8.30
2019-04-16T18:03:29.033Z,9.10
2019-04-16T18:06:02.065Z,19.30
2019-04-16T18:08:38.336Z,13.97
2019-04-16T18:11:10.694Z,11.00
2019-04-16T18:13:43.439Z,8.67
2019-04-16T18:16:16.404Z,7.90
2019-04-16T18:18:46.611Z,8.10
2019-04-16T18:21:16.702Z,8.97
2019-04-16T18:23:52.734Z,7.80
2019-04-16T18:26:28.756Z,6.93
2019-04-16T18:29:10.561Z,7.57
2019-04-16T18:31:46.787Z,7.57
2019-04-16T18:34:25.981Z,7.37
2019-04-16T18:37:12.418Z,7.73
2019-04-16T18:39:42.470Z,8.80
2019-04-16T18:42:15.451Z,10.23
2019-04-16T18:44:57.806Z,11.23
2019-04-16T18:47:27.858Z,9.80
2019-04-16T18:49:57.913Z,9.83
2019-04-16T18:52:26.327Z,10.23
2019-04-16T18:54:54.741Z,9.73
2019-04-16T18:57:23.163Z,9.47
2019-04-16T18:59:51.567Z,8.87
2019-04-16T19:02:20.242Z,9.13
2019-04-16T19:04:51.033Z,9.37
2019-04-16T19:07:19.729Z,9.50
2019-04-16T19:09:48.151Z,9.67
2019-04-16T19:12:16.557Z,9.73
2019-04-16T19:14:44.970Z,9.73
2019-04-16T19:17:16.389Z,9.03
2019-04-16T19:19:45.428Z,8.97
2019-04-16T19:22:13.657Z,8.77
2019-04-16T19:24:42.061Z,8.00
2019-04-16T19:27:10.496Z,8.43
2019-04-16T19:29:38.905Z,9.40
2019-04-16T19:32:07.465Z,10.00
2019-04-16T19:34:40.970Z,9.83
2019-04-16T19:37:06.181Z,10.60
2019-04-16T19:39:34.578Z,9.30
2019-04-16T19:42:02.989Z,9.60
2019-04-16T19:44:33.493Z,9.97
2019-04-16T19:47:01.581Z,9.43
2019-04-16T19:49:30.016Z,9.10
2019-04-16T19:51:58.449Z,9.23
2019-04-16T19:54:26.925Z,8.57
2019-04-16T19:56:55.351Z,8.53
2019-04-16T19:59:23.754Z,8.50
2019-04-16T20:01:55.970Z,9.73
2019-04-16T20:04:22.282Z,10.27
2019-04-16T20:06:50.701Z,11.30
2019-04-16T20:09:19.197Z,10.63
2019-04-16T20:11:47.604Z,10.77
2019-04-16T20:14:16.023Z,9.50
2019-04-16T20:16:44.453Z,9.43
2019-04-16T20:19:12.847Z,8.33
2019-04-16T20:21:42.801Z,9.30
2019-04-16T20:24:11.201Z,9.73
2019-04-16T20:26:39.621Z,9.57
2019-04-16T20:29:08.531Z,9.60
2019-04-16T20:31:36.988Z,9.43
2019-04-16T20:34:05.403Z,10.87
2019-04-16T20:36:33.807Z,13.63
2019-04-16T20:39:02.233Z,11.70
2019-04-16T20:41:30.626Z,12.63
2019-04-16T20:43:59.037Z,13.57
2019-04-16T20:46:27.449Z,15.23
2019-04-16T20:49:07.801Z,13.67
2019-04-16T20:51:26.538Z,13.63
2019-04-16T20:53:55.785Z,11.23
2019-04-16T20:56:24.181Z,10.50
2019-04-16T20:58:52.593Z,9.73
2019-04-16T21:01:33.006Z,10.10
2019-04-16T21:04:03.800Z,18.13
2019-04-16T21:06:26.747Z,21.93
2019-04-16T21:08:56.911Z,16.67
2019-04-16T21:11:25.297Z,14.93
2019-04-16T21:13:53.705Z,16.83
2019-04-16T21:16:22.131Z,17.10
2019-04-16T21:18:50.617Z,13.37
2019-04-16T21:21:19.602Z,12.93
2019-04-16T21:23:49.157Z,12.60
2019-04-16T21:26:20.010Z,11.00
2019-04-16T21:29:14.240Z,10.93
2019-04-16T21:31:48.873Z,11.93
2019-04-16T21:34:33.989Z,12.13
2019-04-16T21:37:16.032Z,10.93
2019-04-16T21:39:57.942Z,11.27
2019-04-16T21:42:26.351Z,11.57
2019-04-16T21:44:54.768Z,12.53
2019-04-16T21:47:24.322Z,14.63
2019-04-16T21:49:53.400Z,13.90
2019-04-16T21:52:23.265Z,11.50
2019-04-16T21:54:51.945Z,10.63
2019-04-16T21:57:20.352Z,11.27
2019-04-16T21:59:50.252Z,11.57
2019-04-16T22:02:20.542Z,14.40
2019-04-16T22:04:49.031Z,15.47
2019-04-16T22:07:17.433Z,14.73
2019-04-16T22:09:45.850Z,15.83
2019-04-16T22:12:15.525Z,14.57
2019-04-16T22:14:44.409Z,14.23
2019-04-16T22:17:12.813Z,13.13
2019-04-16T22:19:53.250Z,12.17
2019-04-16T22:22:11.687Z,10.43
2019-04-16T22:24:41.553Z,12.23
2019-04-16T22:27:09.969Z,12.03
2019-04-16T22:29:38.369Z,13.50
2019-04-16T22:32:06.777Z,12.10
2019-04-16T22:34:35.181Z,12.43
2019-04-16T22:37:03.589Z,11.70
2019-04-16T22:39:36.405Z,11.80
2019-04-16T22:42:15.501Z,11.13
2019-04-16T22:45:03.589Z,12.20
2019-04-16T22:47:36.601Z,12.93
2019-04-16T22:50:16.391Z,13.30
2019-04-16T22:52:36.838Z,12.73
2019-04-16T22:55:06.199Z,13.73
2019-04-16T22:57:34.614Z,15.93
2019-04-16T23:00:03.467Z,15.20
2019-04-16T23:02:31.875Z,15.20
2019-04-16T23:05:00.803Z,13.30
2019-04-16T23:07:29.372Z,13.83
2019-04-16T23:09:57.826Z,12.17
2019-04-16T23:12:28.050Z,11.80
2019-04-16T23:14:56.701Z,11.60
2019-04-16T23:17:26.831Z,12.30
2019-04-16T23:19:55.575Z,12.47
2019-04-16T23:22:24.117Z,11.57
2019-04-16T23:24:55.446Z,13.13
2019-04-16T23:27:22.661Z,12.87
2019-04-16T23:29:51.089Z,13.13
2019-04-16T23:32:19.498Z,12.43
2019-04-16T23:34:47.904Z,12.33
2019-04-16T23:37:16.310Z,13.07
2019-04-16T23:39:44.718Z,11.93
2019-04-16T23:42:13.211Z,12.07
2019-04-16T23:44:54.624Z,12.20
2019-04-16T23:47:42.858Z,11.70
2019-04-16T23:50:15.077Z,11.80
2019-04-16T23:52:45.129Z,11.70
2019-04-16T23:55:17.554Z,11.17
2019-04-16T23:58:02.007Z,12.00
